sensor_id;sensor_type;location;lat;lon;timestamp;P1;durP1;ratioP1;P2;durP2;ratioP2
43523;SDS011;29120;52.006;6.020;2022-11-15T00:00:44;22.60;;;13.73;;
43523;SDS011;29120;52.006;6.020;2022-11-15T00:03:12;21.50;;;12.37;;
43523;SDS011;29120;52.006;6.020;2022-11-15T00:05:39;30.87;;;15.50;;
43523;SDS011;29120;52.006;6.020;2022-11-15T00:08:04;26.77;;;13.93;;
43523;SDS011;29120;52.006;6.020;2022-11-15T00:10:30;27.17;;;14.77;;
43523;SDS011;29120;52.006;6.020;2022-11-15T00:12:55;24.50;;;14.07;;
43523;SDS011;29120;52.006;6.020;2022-11-15T00:15:21;21.23;;;12.73;;
43523;SDS011;29120;52.006;6.020;2022-11-15T00:17:48;26.87;;;14.10;;
43523;SDS011;29120;52.006;6.020;2022-11-15T00:20:14;22.10;;;12.40;;
43523;SDS011;29120;52.006;6.020;2022-11-15T00:22:40;20.40;;;11.23;;
43523;SDS011;29120;52.006;6.020;2022-11-15T00:25:06;21.60;;;13.03;;
43523;SDS011;29120;52.006;6.020;2022-11-15T00:27:31;21.83;;;13.53;;
43523;SDS011;29120;52.006;6.020;2022-11-15T00:29:57;22.23;;;13.53;;
43523;SDS011;29120;52.006;6.020;2022-11-15T00:32:22;29.23;;;15.13;;
43523;SDS011;29120;52.006;6.020;2022-11-15T00:34:48;22.50;;;13.57;;
43523;SDS011;29120;52.006;6.020;2022-11-15T00:37:13;29.33;;;15.07;;
43523;SDS011;29120;52.006;6.020;2022-11-15T00:39:39;24.53;;;15.23;;
43523;SDS011;29120;52.006;6.020;2022-11-15T00:42:04;22.83;;;14.17;;
43523;SDS011;29120;52.006;6.020;2022-11-15T00:44:30;25.67;;;13.03;;
43523;SDS011;29120;52.006;6.020;2022-11-15T00:46:55;21.27;;;13.40;;
43523;SDS011;29120;52.006;6.020;2022-11-15T00:49:21;21.43;;;13.43;;
43523;SDS011;29120;52.006;6.020;2022-11-15T00:51:46;21.33;;;12.43;;
43523;SDS011;29120;52.006;6.020;2022-11-15T00:54:12;22.60;;;14.37;;
43523;SDS011;29120;52.006;6.020;2022-11-15T00:56:37;25.27;;;14.77;;
43523;SDS011;29120;52.006;6.020;2022-11-15T00:59:03;22.23;;;14.90;;
43523;SDS011;29120;52.006;6.020;2022-11-15T01:01:28;28.53;;;15.40;;
43523;SDS011;29120;52.006;6.020;2022-11-15T01:03:54;21.47;;;14.33;;
43523;SDS011;29120;52.006;6.020;2022-11-15T01:06:19;23.83;;;14.33;;
43523;SDS011;29120;52.006;6.020;2022-11-15T01:08:45;27.57;;;16.77;;
43523;SDS011;29120;52.006;6.020;2022-11-15T01:11:11;22.13;;;14.43;;
43523;SDS011;29120;52.006;6.020;2022-11-15T01:13:38;16.17;;;12.67;;
43523;SDS011;29120;52.006;6.020;2022-11-15T01:18:32;20.17;;;14.50;;
43523;SDS011;29120;52.006;6.020;2022-11-15T01:20:58;23.07;;;13.77;;
43523;SDS011;29120;52.006;6.020;2022-11-15T01:23:24;20.70;;;13.30;;
43523;SDS011;29120;52.006;6.020;2022-11-15T01:25:49;25.07;;;12.60;;
43523;SDS011;29120;52.006;6.020;2022-11-15T01:28:15;22.27;;;14.30;;
43523;SDS011;29120;52.006;6.020;2022-11-15T01:30:40;26.17;;;14.60;;
43523;SDS011;29120;52.006;6.020;2022-11-15T01:33:06;20.07;;;13.30;;
43523;SDS011;29120;52.006;6.020;2022-11-15T01:35:31;21.67;;;13.70;;
43523;SDS011;29120;52.006;6.020;2022-11-15T01:37:57;18.37;;;12.43;;
43523;SDS011;29120;52.006;6.020;2022-11-15T01:40:23;18.83;;;13.17;;
43523;SDS011;29120;52.006;6.020;2022-11-15T01:42:48;20.40;;;13.80;;
43523;SDS011;29120;52.006;6.020;2022-11-15T01:45:14;27.00;;;14.93;;
43523;SDS011;29120;52.006;6.020;2022-11-15T01:47:41;19.63;;;13.43;;
43523;SDS011;29120;52.006;6.020;2022-11-15T01:50:12;19.10;;;12.83;;
43523;SDS011;29120;52.006;6.020;2022-11-15T01:52:42;15.53;;;11.53;;
43523;SDS011;29120;52.006;6.020;2022-11-15T01:55:09;15.90;;;11.60;;
43523;SDS011;29120;52.006;6.020;2022-11-15T01:57:39;13.93;;;10.43;;
43523;SDS011;29120;52.006;6.020;2022-11-15T02:00:06;15.77;;;11.30;;
43523;SDS011;29120;52.006;6.020;2022-11-15T02:02:32;18.60;;;13.67;;
43523;SDS011;29120;52.006;6.020;2022-11-15T02:04:59;16.83;;;12.40;;
43523;SDS011;29120;52.006;6.020;2022-11-15T02:07:24;19.13;;;12.90;;
43523;SDS011;29120;52.006;6.020;2022-11-15T02:09:51;16.93;;;11.43;;
43523;SDS011;29120;52.006;6.020;2022-11-15T02:12:18;17.27;;;11.53;;
43523;SDS011;29120;52.006;6.020;2022-11-15T02:14:47;15.53;;;11.10;;
43523;SDS011;29120;52.006;6.020;2022-11-15T02:23:21;17.20;;;12.00;;
43523;SDS011;29120;52.006;6.020;2022-11-15T02:37:16;15.47;;;10.70;;
43523;SDS011;29120;52.006;6.020;2022-11-15T02:39:57;16.27;;;10.63;;
43523;SDS011;29120;52.006;6.020;2022-11-15T02:42:49;17.27;;;11.27;;
43523;SDS011;29120;52.006;6.020;2022-11-15T02:45:58;13.77;;;10.40;;
43523;SDS011;29120;52.006;6.020;2022-11-15T02:49:12;14.88;;;10.90;;
43523;SDS011;29120;52.006;6.020;2022-11-15T02:51:39;12.80;;;9.57;;
43523;SDS011;29120;52.006;6.020;2022-11-15T02:54:10;13.47;;;9.57;;
43523;SDS011;29120;52.006;6.020;2022-11-15T02:56:43;11.10;;;9.13;;
43523;SDS011;29120;52.006;6.020;2022-11-15T03:04:56;12.17;;;9.23;;
43523;SDS011;29120;52.006;6.020;2022-11-15T03:07:50;11.63;;;8.63;;
43523;SDS011;29120;52.006;6.020;2022-11-15T03:13:19;11.33;;;8.90;;
43523;SDS011;29120;52.006;6.020;2022-11-15T03:15:53;10.90;;;9.07;;
43523;SDS011;29120;52.006;6.020;2022-11-15T03:18:43;11.47;;;9.33;;
43523;SDS011;29120;52.006;6.020;2022-11-15T03:21:14;11.17;;;9.70;;
43523;SDS011;29120;52.006;6.020;2022-11-15T03:23:43;12.60;;;10.23;;
43523;SDS011;29120;52.006;6.020;2022-11-15T03:26:11;14.70;;;10.73;;
43523;SDS011;29120;52.006;6.020;2022-11-15T03:28:44;14.00;;;10.33;;
43523;SDS011;29120;52.006;6.020;2022-11-15T03:31:13;13.37;;;10.23;;
43523;SDS011;29120;52.006;6.020;2022-11-15T03:33:59;9.07;;;8.13;;
43523;SDS011;29120;52.006;6.020;2022-11-15T03:36:30;11.40;;;8.90;;
43523;SDS011;29120;52.006;6.020;2022-11-15T03:39:00;11.00;;;9.43;;
43523;SDS011;29120;52.006;6.020;2022-11-15T03:44:07;10.27;;;8.17;;
43523;SDS011;29120;52.006;6.020;2022-11-15T03:46:46;10.23;;;8.63;;
43523;SDS011;29120;52.006;6.020;2022-11-15T03:49:22;10.33;;;8.23;;
43523;SDS011;29120;52.006;6.020;2022-11-15T03:51:52;11.13;;;8.70;;
43523;SDS011;29120;52.006;6.020;2022-11-15T03:54:21;12.67;;;9.93;;
43523;SDS011;29120;52.006;6.020;2022-11-15T03:56:46;11.23;;;8.47;;
43523;SDS011;29120;52.006;6.020;2022-11-15T03:59:12;12.50;;;9.97;;
43523;SDS011;29120;52.006;6.020;2022-11-15T04:01:37;14.70;;;10.00;;
43523;SDS011;29120;52.006;6.020;2022-11-15T04:04:03;15.80;;;10.60;;
43523;SDS011;29120;52.006;6.020;2022-11-15T04:06:28;16.90;;;12.03;;
43523;SDS011;29120;52.006;6.020;2022-11-15T04:08:54;15.37;;;10.97;;
43523;SDS011;29120;52.006;6.020;2022-11-15T04:11:21;15.20;;;11.27;;
43523;SDS011;29120;52.006;6.020;2022-11-15T04:13:46;15.50;;;12.77;;
43523;SDS011;29120;52.006;6.020;2022-11-15T04:16:12;16.00;;;12.90;;
43523;SDS011;29120;52.006;6.020;2022-11-15T04:18:37;17.20;;;13.73;;
43523;SDS011;29120;52.006;6.020;2022-11-15T04:21:03;22.97;;;15.07;;
43523;SDS011;29120;52.006;6.020;2022-11-15T04:23:47;18.27;;;12.33;;
43523;SDS011;29120;52.006;6.020;2022-11-15T04:26:31;17.70;;;13.60;;
43523;SDS011;29120;52.006;6.020;2022-11-15T04:28:57;15.43;;;12.40;;
43523;SDS011;29120;52.006;6.020;2022-11-15T04:34:06;16.73;;;13.03;;
43523;SDS011;29120;52.006;6.020;2022-11-15T04:36:32;17.90;;;14.77;;
43523;SDS011;29120;52.006;6.020;2022-11-15T04:39:16;25.70;;;14.67;;
43523;SDS011;29120;52.006;6.020;2022-11-15T04:41:42;15.27;;;11.87;;
43523;SDS011;29120;52.006;6.020;2022-11-15T04:44:07;21.90;;;15.67;;
43523;SDS011;29120;52.006;6.020;2022-11-15T04:46:34;18.30;;;13.57;;
43523;SDS011;29120;52.006;6.020;2022-11-15T04:49:00;15.20;;;12.67;;
43523;SDS011;29120;52.006;6.020;2022-11-15T04:51:25;16.10;;;14.20;;
43523;SDS011;29120;52.006;6.020;2022-11-15T04:53:51;15.13;;;12.60;;
43523;SDS011;29120;52.006;6.020;2022-11-15T04:56:16;17.83;;;12.97;;
43523;SDS011;29120;52.006;6.020;2022-11-15T04:58:42;16.53;;;12.97;;
43523;SDS011;29120;52.006;6.020;2022-11-15T05:01:08;23.17;;;15.27;;
43523;SDS011;29120;52.006;6.020;2022-11-15T05:03:35;22.00;;;15.67;;
43523;SDS011;29120;52.006;6.020;2022-11-15T05:08:45;18.30;;;14.43;;
43523;SDS011;29120;52.006;6.020;2022-11-15T05:11:11;17.57;;;12.67;;
43523;SDS011;29120;52.006;6.020;2022-11-15T05:13:36;15.90;;;11.60;;
43523;SDS011;29120;52.006;6.020;2022-11-15T05:16:02;16.50;;;11.20;;
43523;SDS011;29120;52.006;6.020;2022-11-15T05:18:27;17.50;;;12.40;;
43523;SDS011;29120;52.006;6.020;2022-11-15T05:20:53;18.57;;;13.00;;
43523;SDS011;29120;52.006;6.020;2022-11-15T05:23:19;16.90;;;13.50;;
43523;SDS011;29120;52.006;6.020;2022-11-15T05:25:44;20.83;;;14.63;;
43523;SDS011;29120;52.006;6.020;2022-11-15T05:28:10;19.10;;;12.90;;
43523;SDS011;29120;52.006;6.020;2022-11-15T05:30:35;16.70;;;12.10;;
43523;SDS011;29120;52.006;6.020;2022-11-15T05:33:01;20.73;;;14.53;;
43523;SDS011;29120;52.006;6.020;2022-11-15T05:35:30;18.23;;;13.37;;
43523;SDS011;29120;52.006;6.020;2022-11-15T05:37:59;15.83;;;12.53;;
43523;SDS011;29120;52.006;6.020;2022-11-15T05:40:25;17.53;;;13.53;;
43523;SDS011;29120;52.006;6.020;2022-11-15T05:42:51;16.03;;;11.47;;
43523;SDS011;29120;52.006;6.020;2022-11-15T05:45:17;18.90;;;12.53;;
43523;SDS011;29120;52.006;6.020;2022-11-15T05:47:42;22.57;;;14.47;;
43523;SDS011;29120;52.006;6.020;2022-11-15T05:50:11;18.33;;;12.33;;
43523;SDS011;29120;52.006;6.020;2022-11-15T05:52:38;14.90;;;11.97;;
43523;SDS011;29120;52.006;6.020;2022-11-15T05:55:04;19.20;;;12.53;;
43523;SDS011;29120;52.006;6.020;2022-11-15T05:57:32;19.60;;;13.60;;
43523;SDS011;29120;52.006;6.020;2022-11-15T05:59:57;17.77;;;13.07;;
43523;SDS011;29120;52.006;6.020;2022-11-15T06:02:23;19.67;;;12.07;;
43523;SDS011;29120;52.006;6.020;2022-11-15T06:04:49;16.37;;;11.77;;
43523;SDS011;29120;52.006;6.020;2022-11-15T06:07:14;17.80;;;12.63;;
43523;SDS011;29120;52.006;6.020;2022-11-15T06:09:40;20.43;;;12.57;;
43523;SDS011;29120;52.006;6.020;2022-11-15T06:12:05;18.70;;;12.53;;
43523;SDS011;29120;52.006;6.020;2022-11-15T06:14:31;17.47;;;12.10;;
43523;SDS011;29120;52.006;6.020;2022-11-15T06:16:57;18.40;;;12.97;;
43523;SDS011;29120;52.006;6.020;2022-11-15T06:19:22;16.60;;;11.90;;
43523;SDS011;29120;52.006;6.020;2022-11-15T06:21:48;19.40;;;12.10;;
43523;SDS011;29120;52.006;6.020;2022-11-15T06:24:13;14.23;;;10.30;;
43523;SDS011;29120;52.006;6.020;2022-11-15T06:26:39;14.53;;;11.40;;
43523;SDS011;29120;52.006;6.020;2022-11-15T06:29:04;16.13;;;11.63;;
43523;SDS011;29120;52.006;6.020;2022-11-15T06:31:30;12.93;;;10.43;;
43523;SDS011;29120;52.006;6.020;2022-11-15T06:33:56;13.23;;;10.60;;
43523;SDS011;29120;52.006;6.020;2022-11-15T06:36:21;16.40;;;11.00;;
43523;SDS011;29120;52.006;6.020;2022-11-15T06:38:47;17.43;;;12.33;;
43523;SDS011;29120;52.006;6.020;2022-11-15T06:41:13;18.63;;;12.50;;
43523;SDS011;29120;52.006;6.020;2022-11-15T06:43:39;18.70;;;14.43;;
43523;SDS011;29120;52.006;6.020;2022-11-15T06:46:05;19.27;;;15.50;;
43523;SDS011;29120;52.006;6.020;2022-11-15T06:48:32;15.47;;;12.67;;
43523;SDS011;29120;52.006;6.020;2022-11-15T06:50:58;19.23;;;14.77;;
43523;SDS011;29120;52.006;6.020;2022-11-15T06:53:26;19.90;;;13.90;;
43523;SDS011;29120;52.006;6.020;2022-11-15T06:55:52;20.77;;;14.07;;
43523;SDS011;29120;52.006;6.020;2022-11-15T06:58:18;15.07;;;11.97;;
43523;SDS011;29120;52.006;6.020;2022-11-15T07:00:45;15.97;;;12.07;;
43523;SDS011;29120;52.006;6.020;2022-11-15T07:03:11;13.33;;;11.20;;
43523;SDS011;29120;52.006;6.020;2022-11-15T07:05:37;14.13;;;10.90;;
43523;SDS011;29120;52.006;6.020;2022-11-15T07:08:02;17.33;;;11.77;;
43523;SDS011;29120;52.006;6.020;2022-11-15T07:10:28;12.33;;;9.60;;
43523;SDS011;29120;52.006;6.020;2022-11-15T07:12:54;11.63;;;9.53;;
43523;SDS011;29120;52.006;6.020;2022-11-15T07:15:21;11.87;;;9.37;;
43523;SDS011;29120;52.006;6.020;2022-11-15T07:17:48;12.63;;;9.13;;
43523;SDS011;29120;52.006;6.020;2022-11-15T07:20:15;11.23;;;10.10;;
43523;SDS011;29120;52.006;6.020;2022-11-15T07:22:40;11.73;;;10.17;;
43523;SDS011;29120;52.006;6.020;2022-11-15T07:25:07;13.67;;;9.93;;
43523;SDS011;29120;52.006;6.020;2022-11-15T07:27:33;14.80;;;11.57;;
43523;SDS011;29120;52.006;6.020;2022-11-15T07:29:59;13.47;;;11.53;;
43523;SDS011;29120;52.006;6.020;2022-11-15T07:32:25;16.77;;;11.77;;
43523;SDS011;29120;52.006;6.020;2022-11-15T07:34:51;15.37;;;10.40;;
43523;SDS011;29120;52.006;6.020;2022-11-15T07:37:16;16.53;;;13.03;;
43523;SDS011;29120;52.006;6.020;2022-11-15T07:39:42;18.00;;;11.83;;
43523;SDS011;29120;52.006;6.020;2022-11-15T07:42:08;15.80;;;12.40;;
43523;SDS011;29120;52.006;6.020;2022-11-15T07:44:53;16.00;;;12.80;;
43523;SDS011;29120;52.006;6.020;2022-11-15T07:47:19;16.73;;;12.07;;
43523;SDS011;29120;52.006;6.020;2022-11-15T07:49:45;13.80;;;11.27;;
43523;SDS011;29120;52.006;6.020;2022-11-15T07:52:11;12.93;;;10.00;;
43523;SDS011;29120;52.006;6.020;2022-11-15T07:54:37;15.33;;;11.47;;
43523;SDS011;29120;52.006;6.020;2022-11-15T07:57:02;13.37;;;10.77;;
43523;SDS011;29120;52.006;6.020;2022-11-15T07:59:28;11.10;;;9.90;;
43523;SDS011;29120;52.006;6.020;2022-11-15T08:01:54;10.90;;;9.73;;
43523;SDS011;29120;52.006;6.020;2022-11-15T08:04:19;12.87;;;10.87;;
43523;SDS011;29120;52.006;6.020;2022-11-15T08:06:45;12.03;;;10.67;;
43523;SDS011;29120;52.006;6.020;2022-11-15T08:09:11;13.00;;;9.80;;
43523;SDS011;29120;52.006;6.020;2022-11-15T08:11:36;13.30;;;11.07;;
43523;SDS011;29120;52.006;6.020;2022-11-15T08:14:02;14.13;;;12.10;;
43523;SDS011;29120;52.006;6.020;2022-11-15T08:16:27;15.10;;;10.47;;
43523;SDS011;29120;52.006;6.020;2022-11-15T08:18:53;13.00;;;10.87;;
43523;SDS011;29120;52.006;6.020;2022-11-15T08:21:19;13.37;;;11.67;;
43523;SDS011;29120;52.006;6.020;2022-11-15T08:23:46;12.03;;;10.40;;
43523;SDS011;29120;52.006;6.020;2022-11-15T08:26:11;11.30;;;10.17;;
43523;SDS011;29120;52.006;6.020;2022-11-15T08:28:37;11.13;;;9.93;;
43523;SDS011;29120;52.006;6.020;2022-11-15T08:31:03;11.83;;;9.90;;
43523;SDS011;29120;52.006;6.020;2022-11-15T08:33:29;13.50;;;8.60;;
43523;SDS011;29120;52.006;6.020;2022-11-15T08:35:56;13.13;;;9.03;;
43523;SDS011;29120;52.006;6.020;2022-11-15T08:38:23;10.30;;;8.80;;
43523;SDS011;29120;52.006;6.020;2022-11-15T08:40:50;11.73;;;10.30;;
43523;SDS011;29120;52.006;6.020;2022-11-15T08:43:18;11.83;;;9.60;;
43523;SDS011;29120;52.006;6.020;2022-11-15T08:45:43;12.70;;;10.43;;
43523;SDS011;29120;52.006;6.020;2022-11-15T08:48:09;9.40;;;8.40;;
43523;SDS011;29120;52.006;6.020;2022-11-15T08:50:35;13.63;;;10.67;;
43523;SDS011;29120;52.006;6.020;2022-11-15T08:53:07;11.73;;;10.10;;
43523;SDS011;29120;52.006;6.020;2022-11-15T08:55:35;17.67;;;12.37;;
43523;SDS011;29120;52.006;6.020;2022-11-15T08:58:01;15.93;;;11.70;;
43523;SDS011;29120;52.006;6.020;2022-11-15T09:00:27;15.80;;;12.13;;
43523;SDS011;29120;52.006;6.020;2022-11-15T09:02:53;13.77;;;10.90;;
43523;SDS011;29120;52.006;6.020;2022-11-15T09:05:18;13.43;;;10.87;;
43523;SDS011;29120;52.006;6.020;2022-11-15T09:07:44;13.20;;;11.20;;
43523;SDS011;29120;52.006;6.020;2022-11-15T09:10:09;13.30;;;11.57;;
43523;SDS011;29120;52.006;6.020;2022-11-15T09:12:35;15.17;;;12.67;;
43523;SDS011;29120;52.006;6.020;2022-11-15T09:15:01;15.63;;;11.67;;
43523;SDS011;29120;52.006;6.020;2022-11-15T09:17:26;17.67;;;12.47;;
43523;SDS011;29120;52.006;6.020;2022-11-15T09:19:52;15.83;;;11.70;;
43523;SDS011;29120;52.006;6.020;2022-11-15T09:22:17;14.07;;;10.20;;
43523;SDS011;29120;52.006;6.020;2022-11-15T09:24:43;13.80;;;10.30;;
43523;SDS011;29120;52.006;6.020;2022-11-15T09:27:09;14.53;;;10.20;;
43523;SDS011;29120;52.006;6.020;2022-11-15T09:29:34;14.20;;;10.83;;
43523;SDS011;29120;52.006;6.020;2022-11-15T09:32:00;10.27;;;8.13;;
43523;SDS011;29120;52.006;6.020;2022-11-15T09:34:25;9.47;;;8.43;;
43523;SDS011;29120;52.006;6.020;2022-11-15T09:36:51;10.13;;;9.03;;
43523;SDS011;29120;52.006;6.020;2022-11-15T09:39:16;10.10;;;8.17;;
43523;SDS011;29120;52.006;6.020;2022-11-15T09:41:50;11.03;;;8.53;;
43523;SDS011;29120;52.006;6.020;2022-11-15T09:44:24;12.10;;;8.77;;
43523;SDS011;29120;52.006;6.020;2022-11-15T09:52:17;8.43;;;7.63;;
43523;SDS011;29120;52.006;6.020;2022-11-15T09:54:45;10.37;;;7.53;;
43523;SDS011;29120;52.006;6.020;2022-11-15T09:57:15;14.50;;;9.10;;
43523;SDS011;29120;52.006;6.020;2022-11-15T10:05:23;9.47;;;7.30;;
43523;SDS011;29120;52.006;6.020;2022-11-15T10:10:38;12.17;;;8.93;;
43523;SDS011;29120;52.006;6.020;2022-11-15T10:13:12;13.07;;;9.10;;
43523;SDS011;29120;52.006;6.020;2022-11-15T10:15:44;12.90;;;8.63;;
43523;SDS011;29120;52.006;6.020;2022-11-15T10:18:23;12.50;;;8.40;;
43523;SDS011;29120;52.006;6.020;2022-11-15T10:21:29;8.17;;;6.50;;
43523;SDS011;29120;52.006;6.020;2022-11-15T10:24:10;8.07;;;6.23;;
43523;SDS011;29120;52.006;6.020;2022-11-15T10:26:37;8.27;;;5.60;;
43523;SDS011;29120;52.006;6.020;2022-11-15T10:29:04;5.70;;;4.70;;
43523;SDS011;29120;52.006;6.020;2022-11-15T10:31:30;5.50;;;5.00;;
43523;SDS011;29120;52.006;6.020;2022-11-15T10:34:03;6.03;;;3.53;;
43523;SDS011;29120;52.006;6.020;2022-11-15T10:36:38;5.47;;;3.60;;
43523;SDS011;29120;52.006;6.020;2022-11-15T10:39:10;5.27;;;2.53;;
43523;SDS011;29120;52.006;6.020;2022-11-15T10:41:38;7.33;;;2.33;;
43523;SDS011;29120;52.006;6.020;2022-11-15T10:44:24;6.93;;;2.50;;
43523;SDS011;29120;52.006;6.020;2022-11-15T10:49:24;4.73;;;1.50;;
43523;SDS011;29120;52.006;6.020;2022-11-15T10:51:53;3.00;;;1.63;;
43523;SDS011;29120;52.006;6.020;2022-11-15T10:57:12;3.13;;;1.20;;
43523;SDS011;29120;52.006;6.020;2022-11-15T10:59:42;4.93;;;1.50;;
43523;SDS011;29120;52.006;6.020;2022-11-15T11:04:57;2.60;;;1.17;;
43523;SDS011;29120;52.006;6.020;2022-11-15T11:07:28;5.07;;;1.03;;
43523;SDS011;29120;52.006;6.020;2022-11-15T11:10:17;2.75;;;1.05;;
43523;SDS011;29120;52.006;6.020;2022-11-15T11:12:45;3.05;;;0.60;;
43523;SDS011;29120;52.006;6.020;2022-11-15T11:15:12;3.20;;;0.90;;
43523;SDS011;29120;52.006;6.020;2022-11-15T11:20:38;3.55;;;0.88;;
43523;SDS011;29120;52.006;6.020;2022-11-15T11:48:30;2.80;;;0.30;;
43523;SDS011;29120;52.006;6.020;2022-11-15T11:51:32;2.13;;;0.30;;
43523;SDS011;29120;52.006;6.020;2022-11-15T11:54:10;2.55;;;0.50;;
43523;SDS011;29120;52.006;6.020;2022-11-15T11:56:55;2.72;;;0.40;;
43523;SDS011;29120;52.006;6.020;2022-11-15T11:59:39;2.25;;;0.30;;
43523;SDS011;29120;52.006;6.020;2022-11-15T12:04:50;2.38;;;0.30;;
43523;SDS011;29120;52.006;6.020;2022-11-15T12:09:58;2.88;;;0.30;;
43523;SDS011;29120;52.006;6.020;2022-11-15T12:17:36;1.20;;;0.28;;
43523;SDS011;29120;52.006;6.020;2022-11-15T12:20:05;1.25;;;0.30;;
43523;SDS011;29120;52.006;6.020;2022-11-15T12:22:45;1.40;;;0.32;;
43523;SDS011;29120;52.006;6.020;2022-11-15T12:25:36;2.95;;;0.20;;
43523;SDS011;29120;52.006;6.020;2022-11-15T12:28:19;1.88;;;0.20;;
43523;SDS011;29120;52.006;6.020;2022-11-15T12:34:15;1.50;;;0.20;;
43523;SDS011;29120;52.006;6.020;2022-11-15T12:37:32;0.85;;;0.20;;
43523;SDS011;29120;52.006;6.020;2022-11-15T12:50:55;1.75;;;0.10;;
43523;SDS011;29120;52.006;6.020;2022-11-15T12:58:45;3.20;;;0.25;;
43523;SDS011;29120;52.006;6.020;2022-11-15T13:04:38;1.50;;;0.20;;
43523;SDS011;29120;52.006;6.020;2022-11-15T13:06:51;1.15;;;0.20;;
43523;SDS011;29120;52.006;6.020;2022-11-15T13:11:59;2.58;;;0.10;;
43523;SDS011;29120;52.006;6.020;2022-11-15T13:14:38;2.03;;;0.20;;
43523;SDS011;29120;52.006;6.020;2022-11-15T13:17:23;2.13;;;0.20;;
43523;SDS011;29120;52.006;6.020;2022-11-15T13:19:59;2.08;;;0.10;;
43523;SDS011;29120;52.006;6.020;2022-11-15T13:30:53;2.13;;;0.20;;
43523;SDS011;29120;52.006;6.020;2022-11-15T13:36:00;1.30;;;0.20;;
43523;SDS011;29120;52.006;6.020;2022-11-15T13:38:31;1.33;;;0.20;;
43523;SDS011;29120;52.006;6.020;2022-11-15T13:40:59;3.00;;;0.20;;
43523;SDS011;29120;52.006;6.020;2022-11-15T13:43:35;1.08;;;0.20;;
43523;SDS011;29120;52.006;6.020;2022-11-15T13:46:15;2.50;;;0.20;;
43523;SDS011;29120;52.006;6.020;2022-11-15T13:48:50;1.33;;;0.20;;
43523;SDS011;29120;52.006;6.020;2022-11-15T13:51:29;2.88;;;0.20;;
43523;SDS011;29120;52.006;6.020;2022-11-15T13:56:38;1.30;;;0.30;;
43523;SDS011;29120;52.006;6.020;2022-11-15T13:59:10;0.73;;;0.20;;
43523;SDS011;29120;52.006;6.020;2022-11-15T14:04:10;1.92;;;0.20;;
43523;SDS011;29120;52.006;6.020;2022-11-15T14:06:44;1.73;;;0.30;;
43523;SDS011;29120;52.006;6.020;2022-11-15T14:09:18;1.80;;;0.30;;
43523;SDS011;29120;52.006;6.020;2022-11-15T14:11:53;1.67;;;0.40;;
43523;SDS011;29120;52.006;6.020;2022-11-15T14:14:21;3.85;;;0.17;;
43523;SDS011;29120;52.006;6.020;2022-11-15T14:16:49;1.60;;;0.30;;
43523;SDS011;29120;52.006;6.020;2022-11-15T14:19:39;1.30;;;0.30;;
43523;SDS011;29120;52.006;6.020;2022-11-15T14:22:12;0.70;;;0.20;;
43523;SDS011;29120;52.006;6.020;2022-11-15T14:27:38;2.28;;;0.20;;
43523;SDS011;29120;52.006;6.020;2022-11-15T14:30:04;1.50;;;0.20;;
43523;SDS011;29120;52.006;6.020;2022-11-15T14:32:43;1.42;;;0.20;;
43523;SDS011;29120;52.006;6.020;2022-11-15T14:35:17;4.68;;;0.40;;
43523;SDS011;29120;52.006;6.020;2022-11-15T14:37:44;1.38;;;0.28;;
43523;SDS011;29120;52.006;6.020;2022-11-15T14:40:13;2.00;;;0.23;;
43523;SDS011;29120;52.006;6.020;2022-11-15T14:42:40;1.50;;;0.20;;
43523;SDS011;29120;52.006;6.020;2022-11-15T14:45:17;2.47;;;0.20;;
43523;SDS011;29120;52.006;6.020;2022-11-15T14:47:44;0.98;;;0.30;;
43523;SDS011;29120;52.006;6.020;2022-11-15T14:50:13;1.42;;;0.20;;
43523;SDS011;29120;52.006;6.020;2022-11-15T14:52:44;0.50;;;0.20;;
43523;SDS011;29120;52.006;6.020;2022-11-15T14:55:20;1.30;;;0.10;;
43523;SDS011;29120;52.006;6.020;2022-11-15T14:57:50;1.23;;;0.20;;
43523;SDS011;29120;52.006;6.020;2022-11-15T15:00:17;1.83;;;0.30;;
43523;SDS011;29120;52.006;6.020;2022-11-15T15:02:44;0.70;;;0.20;;
43523;SDS011;29120;52.006;6.020;2022-11-15T15:05:15;3.35;;;0.30;;
43523;SDS011;29120;52.006;6.020;2022-11-15T15:07:41;1.65;;;0.35;;
43523;SDS011;29120;52.006;6.020;2022-11-15T15:10:07;0.98;;;0.20;;
43523;SDS011;29120;52.006;6.020;2022-11-15T15:12:33;2.10;;;0.60;;
43523;SDS011;29120;52.006;6.020;2022-11-15T15:14:58;0.85;;;0.28;;
43523;SDS011;29120;52.006;6.020;2022-11-15T15:17:24;1.27;;;0.30;;
43523;SDS011;29120;52.006;6.020;2022-11-15T15:19:49;1.50;;;0.30;;
43523;SDS011;29120;52.006;6.020;2022-11-15T15:22:16;0.60;;;0.30;;
43523;SDS011;29120;52.006;6.020;2022-11-15T15:24:43;1.30;;;0.40;;
43523;SDS011;29120;52.006;6.020;2022-11-15T15:27:10;0.70;;;0.20;;
43523;SDS011;29120;52.006;6.020;2022-11-15T15:29:35;1.63;;;0.43;;
43523;SDS011;29120;52.006;6.020;2022-11-15T15:32:01;1.10;;;0.40;;
43523;SDS011;29120;52.006;6.020;2022-11-15T15:34:27;1.33;;;0.40;;
43523;SDS011;29120;52.006;6.020;2022-11-15T15:39:48;3.33;;;0.30;;
43523;SDS011;29120;52.006;6.020;2022-11-15T15:42:14;1.42;;;0.30;;
43523;SDS011;29120;52.006;6.020;2022-11-15T15:44:40;2.00;;;0.50;;
43523;SDS011;29120;52.006;6.020;2022-11-15T15:47:12;1.47;;;0.30;;
43523;SDS011;29120;52.006;6.020;2022-11-15T15:49:46;1.20;;;0.27;;
43523;SDS011;29120;52.006;6.020;2022-11-15T15:52:12;3.17;;;0.40;;
43523;SDS011;29120;52.006;6.020;2022-11-15T15:54:38;2.10;;;0.40;;
43523;SDS011;29120;52.006;6.020;2022-11-15T15:57:04;2.40;;;0.40;;
43523;SDS011;29120;52.006;6.020;2022-11-15T15:59:30;1.60;;;0.30;;
43523;SDS011;29120;52.006;6.020;2022-11-15T16:01:56;1.87;;;0.30;;
43523;SDS011;29120;52.006;6.020;2022-11-15T16:04:22;1.23;;;0.40;;
43523;SDS011;29120;52.006;6.020;2022-11-15T16:06:47;3.47;;;0.70;;
43523;SDS011;29120;52.006;6.020;2022-11-15T16:09:15;2.47;;;0.60;;
43523;SDS011;29120;52.006;6.020;2022-11-15T16:11:43;2.47;;;0.40;;
43523;SDS011;29120;52.006;6.020;2022-11-15T16:14:10;4.40;;;0.60;;
43523;SDS011;29120;52.006;6.020;2022-11-15T16:16:35;3.00;;;0.40;;
43523;SDS011;29120;52.006;6.020;2022-11-15T16:19:02;4.03;;;1.30;;
43523;SDS011;29120;52.006;6.020;2022-11-15T16:21:28;7.40;;;3.93;;
43523;SDS011;29120;52.006;6.020;2022-11-15T16:23:54;6.73;;;2.50;;
43523;SDS011;29120;52.006;6.020;2022-11-15T16:26:24;5.37;;;1.97;;
43523;SDS011;29120;52.006;6.020;2022-11-15T16:28:51;4.47;;;1.20;;
43523;SDS011;29120;52.006;6.020;2022-11-15T16:31:17;2.40;;;0.90;;
43523;SDS011;29120;52.006;6.020;2022-11-15T16:33:44;3.80;;;1.03;;
43523;SDS011;29120;52.006;6.020;2022-11-15T16:36:23;1.40;;;0.40;;
43523;SDS011;29120;52.006;6.020;2022-11-15T16:38:50;2.47;;;0.40;;
43523;SDS011;29120;52.006;6.020;2022-11-15T16:41:16;1.20;;;0.40;;
43523;SDS011;29120;52.006;6.020;2022-11-15T16:43:46;1.83;;;0.50;;
43523;SDS011;29120;52.006;6.020;2022-11-15T16:46:14;1.50;;;0.40;;
43523;SDS011;29120;52.006;6.020;2022-11-15T16:48:43;4.00;;;0.50;;
43523;SDS011;29120;52.006;6.020;2022-11-15T16:51:09;3.30;;;0.60;;
43523;SDS011;29120;52.006;6.020;2022-11-15T16:53:35;1.60;;;0.60;;
43523;SDS011;29120;52.006;6.020;2022-11-15T16:56:01;4.33;;;1.77;;
43523;SDS011;29120;52.006;6.020;2022-11-15T16:58:27;8.73;;;4.87;;
43523;SDS011;29120;52.006;6.020;2022-11-15T17:00:52;6.83;;;3.50;;
43523;SDS011;29120;52.006;6.020;2022-11-15T17:03:20;3.97;;;1.57;;
43523;SDS011;29120;52.006;6.020;2022-11-15T17:05:48;5.20;;;1.30;;
43523;SDS011;29120;52.006;6.020;2022-11-15T17:08:14;2.27;;;0.60;;